Time;durP1;ratioP1;P1;durP2;ratioP2;P2;SDS_P1;SDS_P2;PMS_P1;PMS_P2;Temp;Humidity;BMP_temperature;BMP_pressure;BME280_temperature;BME280_humidity;BME280_pressure;Samples;Min_cycle;Max_cycle;Signal;HPM_P1;HPM_P2
2021/01/02 00:00:16;;;;;;;86.57;47.15;;;3.40;92.50;;;;;;2055236;28;20042;-72
2021/01/02 00:01:18;;;;;;;81.70;45.47;;;3.40;92.60;;;;;;2053847;28;20038;-71
2021/01/02 00:02:46;;;;;;;81.35;46.50;;;3.40;92.50;;;;;;2055202;28;20142;-72
2021/01/02 00:04:16;;;;;;;85.95;45.90;;;3.40;92.60;;;;;;2051155;28;20050;-72
2021/01/02 00:05:21;;;;;;;84.78;46.45;;;3.40;92.50;;;;;;2053073;28;20445;-72
2021/01/02 00:06:31;;;;;;;84.35;46.03;;;3.40;92.60;;;;;;2054260;28;20039;-71
2021/01/02 00:07:56;;;;;;;79.30;44.90;;;3.40;92.60;;;;;;2055197;28;20027;-72
2021/01/02 00:09:08;;;;;;;85.00;46.05;;;3.40;92.50;;;;;;2051033;28;20533;-71
2021/01/02 00:10:14;;;;;;;85.90;47.03;;;3.40;92.50;;;;;;2054550;28;20023;-72
2021/01/02 00:11:31;;;;;;;83.30;46.25;;;3.40;92.60;;;;;;2054122;28;20019;-71
2021/01/02 00:12:48;;;;;;;88.25;47.42;;;3.40;92.90;;;;;;2054470;28;20429;-71
2021/01/02 00:14:13;;;;;;;83.55;45.83;;;3.40;92.60;;;;;;2053905;28;20031;-71
2021/01/02 00:15:23;;;;;;;81.95;44.83;;;3.40;92.60;;;;;;2055126;28;20046;-72
2021/01/02 00:16:56;;;;;;;82.60;44.67;;;3.40;92.60;;;;;;2052051;28;20494;-72
2021/01/02 00:18:20;;;;;;;90.25;47.03;;;3.40;92.60;;;;;;2051618;28;20027;-71
2021/01/02 00:19:27;;;;;;;84.78;45.20;;;3.40;92.60;;;;;;2054926;28;20114;-73
2021/01/02 00:20:46;;;;;;;87.80;47.40;;;3.40;92.70;;;;;;2055677;28;20762;-72
2021/01/02 00:21:59;;;;;;;88.22;47.80;;;3.40;92.60;;;;;;2055730;28;20026;-73
2021/01/02 00:23:00;;;;;;;87.70;46.60;;;3.40;92.60;;;;;;2055915;28;20520;-72
2021/01/02 00:24:04;;;;;;;85.50;46.53;;;3.40;92.60;;;;;;2055354;28;20029;-72
2021/01/02 00:25:11;;;;;;;85.90;46.50;;;3.40;92.60;;;;;;2060036;28;20030;-73
2021/01/02 00:26:41;;;;;;;81.20;46.08;;;3.40;92.70;;;;;;2055857;28;20084;-73
2021/01/02 00:27:58;;;;;;;83.05;45.22;;;3.40;92.60;;;;;;2048926;28;20038;-73
2021/01/02 00:29:02;;;;;;;83.57;45.05;;;3.40;92.60;;;;;;2047999;28;20471;-72
2021/01/02 00:30:30;;;;;;;83.82;45.25;;;3.40;92.50;;;;;;2047817;28;20110;-71
2021/01/02 00:31:53;;;;;;;81.65;44.17;;;3.40;92.60;;;;;;2052265;28;20490;-72
2021/01/02 00:32:54;;;;;;;80.90;44.75;;;3.40;92.50;;;;;;2055839;28;20130;-70
2021/01/02 00:34:03;;;;;;;82.07;44.55;;;3.40;92.60;;;;;;2055720;28;20027;-71
2021/01/02 00:35:05;;;;;;;80.07;43.72;;;3.40;92.60;;;;;;2056477;28;20093;-70
2021/01/02 00:36:23;;;;;;;79.45;45.55;;;3.40;92.50;;;;;;2056192;28;20031;-72
2021/01/02 00:37:28;;;;;;;82.03;44.45;;;3.40;92.50;;;;;;2056420;28;20062;-71
2021/01/02 00:38:29;;;;;;;79.97;44.72;;;3.40;92.50;;;;;;2056520;28;20049;-70
2021/01/02 00:40:03;;;;;;;81.45;45.45;;;3.40;92.60;;;;;;2056317;28;20030;-70
2021/01/02 00:41:06;;;;;;;79.70;43.67;;;3.40;92.60;;;;;;2056474;28;20121;-71
2021/01/02 00:42:11;;;;;;;84.85;44.88;;;3.40;92.60;;;;;;2056509;28;20019;-71
2021/01/02 00:43:13;;;;;;;78.38;44.28;;;3.40;92.60;;;;;;2056447;28;20030;-71
2021/01/02 00:44:15;;;;;;;77.95;43.20;;;3.40;92.60;;;;;;2056002;28;20033;-71
2021/01/02 00:45:21;;;;;;;76.93;43.85;;;3.40;92.60;;;;;;2056421;28;20073;-71
2021/01/02 00:46:21;;;;;;;78.90;45.30;;;3.40;92.50;;;;;;2047445;29;20031;-71
2021/01/02 00:47:26;;;;;;;77.63;43.22;;;3.40;92.50;;;;;;2048138;29;20546;-70
2021/01/02 00:48:31;;;;;;;79.30;44.83;;;3.40;92.50;;;;;;2048531;28;20031;-71
2021/01/02 00:49:32;;;;;;;79.85;43.10;;;3.40;92.50;;;;;;2048514;28;20046;-71
2021/01/02 00:50:33;;;;;;;81.93;43.58;;;3.40;92.50;;;;;;2056157;28;20376;-71
2021/01/02 00:51:46;;;;;;;81.25;43.85;;;3.40;92.50;;;;;;2056681;28;20038;-71
2021/01/02 00:52:50;;;;;;;79.45;42.95;;;3.40;92.50;;;;;;2056327;28;20133;-71
2021/01/02 00:54:35;;;;;;;92.32;48.60;;;3.40;92.60;;;;;;2049147;28;20034;-72
2021/01/02 00:56:05;;;;;;;85.32;46.13;;;3.40;92.40;;;;;;2053692;28;20039;-72
2021/01/02 00:57:23;;;;;;;83.03;44.60;;;3.40;92.50;;;;;;2044280;28;20149;-71
2021/01/02 00:58:30;;;;;;;84.38;45.08;;;3.40;92.60;;;;;;2050254;28;20035;-71
2021/01/02 00:59:56;;;;;;;82.35;44.10;;;3.40;92.50;;;;;;2050188;28;20110;-72
2021/01/02 01:01:03;;;;;;;80.20;43.50;;;3.40;92.40;;;;;;2052630;28;20134;-71
2021/01/02 01:02:24;;;;;;;82.28;44.95;;;3.40;92.40;;;;;;2051024;28;20027;-71
2021/01/02 01:03:37;;;;;;;77.70;43.67;;;3.40;92.50;;;;;;2055451;28;20430;-72
2021/01/02 01:05:06;;;;;;;80.05;44.17;;;3.40;92.60;;;;;;2056392;28;20031;-71
2021/01/02 01:06:11;;;;;;;84.43;45.30;;;3.40;92.60;;;;;;2056008;28;20730;-72
2021/01/02 01:07:17;;;;;;;82.30;44.88;;;3.40;92.50;;;;;;2056145;28;20618;-71
2021/01/02 01:08:18;;;;;;;77.25;44.17;;;3.40;92.50;;;;;;2055849;28;20502;-72
2021/01/02 01:09:23;;;;;;;84.13;45.88;;;3.40;92.50;;;;;;2055582;28;20569;-72
2021/01/02 01:10:26;;;;;;;79.80;44.80;;;3.40;92.50;;;;;;2055577;28;20069;-71
2021/01/02 01:11:36;;;;;;;78.40;43.60;;;3.40;92.50;;;;;;2055561;28;20530;-71
2021/01/02 01:12:43;;;;;;;83.30;44.65;;;3.40;92.50;;;;;;2056323;28;20038;-71
2021/01/02 01:13:44;;;;;;;80.32;43.72;;;3.40;92.60;;;;;;2054939;28;20358;-71
2021/01/02 01:14:46;;;;;;;84.75;46.72;;;3.40;92.60;;;;;;2055437;28;20208;-71
2021/01/02 01:15:48;;;;;;;89.40;48.55;;;3.40;92.60;;;;;;2056208;28;20031;-72
2021/01/02 01:16:57;;;;;;;87.40;47.55;;;3.40;92.60;;;;;;2055878;28;20043;-73
2021/01/02 01:18:14;;;;;;;81.38;45.13;;;3.40;92.60;;;;;;2055827;28;20073;-73
2021/01/02 01:19:19;;;;;;;84.13;45.05;;;3.40;92.70;;;;;;2056228;28;20027;-72
2021/01/02 01:20:21;;;;;;;85.38;45.92;;;3.40;92.70;;;;;;2055466;28;20498;-73
2021/01/02 01:21:27;;;;;;;85.30;45.80;;;3.40;92.60;;;;;;2055511;28;20448;-73
2021/01/02 01:22:41;;;;;;;86.90;46.67;;;3.40;92.60;;;;;;2056219;28;20097;-73
2021/01/02 01:24:05;;;;;;;84.22;45.30;;;3.40;92.70;;;;;;2055651;28;20018;-73
2021/01/02 01:25:06;;;;;;;83.93;44.72;;;3.40;92.60;;;;;;2046896;29;20050;-72
2021/01/02 01:26:44;;;;;;;80.57;44.45;;;3.50;92.60;;;;;;2055194;28;20026;-71
2021/01/02 01:27:54;;;;;;;80.25;43.55;;;3.40;92.60;;;;;;2054061;28;20073;-72
2021/01/02 01:28:59;;;;;;;86.00;44.92;;;3.40;92.50;;;;;;2055497;28;20146;-71
2021/01/02 01:30:00;;;;;;;87.72;45.97;;;3.50;92.60;;;;;;2055077;28;20030;-73
2021/01/02 01:31:04;;;;;;;85.28;46.53;;;3.40;92.70;;;;;;2048153;28;20463;-72
2021/01/02 01:32:06;;;;;;;82.95;44.70;;;3.50;92.70;;;;;;2048156;28;20036;-72
2021/01/02 01:33:08;;;;;;;84.20;45.90;;;3.50;92.70;;;;;;2048117;28;20026;-72
2021/01/02 01:34:19;;;;;;;86.93;45.50;;;3.50;92.70;;;;;;2047583;28;20019;-72
2021/01/02 01:35:26;;;;;;;83.65;45.63;;;3.50;92.60;;;;;;2048221;28;20042;-73
2021/01/02 01:36:34;;;;;;;85.00;45.72;;;3.50;92.70;;;;;;2053757;28;20031;-72
2021/01/02 01:37:40;;;;;;;80.68;44.92;;;3.50;92.70;;;;;;2056130;28;20038;-72
2021/01/02 01:38:44;;;;;;;82.00;45.55;;;3.50;92.70;;;;;;2055433;28;20031;-73
2021/01/02 01:39:52;;;;;;;83.13;46.00;;;3.50;92.70;;;;;;2055536;28;20574;-73
2021/01/02 01:41:01;;;;;;;83.28;46.22;;;3.50;92.70;;;;;;2056122;28;20023;-73
2021/01/02 01:42:05;;;;;;;82.00;44.42;;;3.50;93.00;;;;;;2056239;28;20023;-73
2021/01/02 01:43:18;;;;;;;83.55;45.72;;;3.50;92.70;;;;;;2056173;28;20019;-73
2021/01/02 01:44:49;;;;;;;80.30;44.10;;;3.50;92.80;;;;;;2055947;28;20451;-73
2021/01/02 01:46:12;;;;;;;80.00;43.03;;;3.50;92.80;;;;;;2056157;28;20046;-72
2021/01/02 01:47:20;;;;;;;78.57;43.13;;;3.50;92.80;;;;;;2055653;28;20038;-73
2021/01/02 01:48:32;;;;;;;83.85;44.35;;;3.40;92.80;;;;;;2055723;28;20031;-73
2021/01/02 01:49:38;;;;;;;80.80;44.38;;;3.40;92.80;;;;;;2056115;28;20037;-72
2021/01/02 01:50:59;;;;;;;81.47;45.03;;;3.40;92.90;;;;;;2047535;29;20475;-73
2021/01/02 01:52:03;;;;;;;84.63;45.50;;;3.40;93.00;;;;;;2050475;28;20395;-72
2021/01/02 01:53:39;;;;;;;79.93;43.75;;;3.40;93.00;;;;;;2056132;28;20019;-72
2021/01/02 01:54:57;;;;;;;83.65;44.13;;;3.40;93.00;;;;;;2056083;28;20109;-72
2021/01/02 01:56:08;;;;;;;79.50;43.60;;;3.40;93.00;;;;;;2056110;28;20066;-73
2021/01/02 01:57:16;;;;;;;84.97;45.38;;;3.40;92.90;;;;;;2055999;28;20474;-73
2021/01/02 01:58:27;;;;;;;77.13;42.00;;;3.40;93.00;;;;;;2056234;28;20054;-72
2021/01/02 01:59:58;;;;;;;;;;;3.40;93.00;;;;;;2056576;28;20035;-73
2021/01/02 02:01:02;;;;;;;80.32;42.50;;;3.40;93.10;;;;;;2056157;28;20689;-73
2021/01/02 02:02:15;;;;;;;84.70;44.45;;;3.40;93.10;;;;;;2056142;28;20549;-73
2021/01/02 02:03:34;;;;;;;84.28;44.55;;;3.40;93.10;;;;;;2056142;28;20035;-72
2021/01/02 02:05:03;;;;;;;80.15;42.88;;;3.40;93.00;;;;;;2055973;28;20031;-73
2021/01/02 02:06:26;;;;;;;83.30;44.03;;;3.30;93.00;;;;;;2053489;28;20503;-72
2021/01/02 02:08:02;;;;;;;81.45;43.60;;;3.30;93.00;;;;;;2055954;28;20095;-73
2021/01/02 02:09:04;;;;;;;83.35;43.25;;;3.30;93.00;;;;;;2055935;28;20401;-72
2021/01/02 02:12:22;;;;;;;83.35;43.45;;;3.30;93.00;;;;;;2057652;28;20382;-73
2021/01/02 02:13:32;;;;;;;80.68;43.63;;;3.30;93.10;;;;;;2056964;28;20035;-73
2021/01/02 02:14:53;;;;;;;81.57;43.67;;;3.30;93.10;;;;;;2057455;28;20114;-73
2021/01/02 02:15:56;;;;;;;82.30;44.55;;;3.30;93.10;;;;;;2051830;28;20274;-73
2021/01/02 02:17:03;;;;;;;79.35;42.75;;;3.30;93.20;;;;;;2056765;28;20069;-73
2021/01/02 02:18:06;;;;;;;79.50;43.92;;;3.30;93.10;;;;;;2057588;28;20023;-72
2021/01/02 02:19:27;;;;;;;79.43;44.15;;;3.30;93.20;;;;;;2057514;28;20023;-72
2021/01/02 02:20:29;;;;;;;82.28;43.97;;;3.30;93.20;;;;;;2056959;28;20035;-73
2021/01/02 02:21:37;;;;;;;76.90;42.95;;;3.30;93.10;;;;;;2057525;28;20018;-72
2021/01/02 02:22:39;;;;;;;78.70;42.72;;;3.30;93.30;;;;;;2057967;28;20039;-73
2021/01/02 02:23:42;;;;;;;80.80;43.22;;;3.30;93.10;;;;;;2058795;28;20026;-73
2021/01/02 02:24:44;;;;;;;78.18;43.55;;;3.30;93.10;;;;;;2060531;28;20113;-73
2021/01/02 02:26:04;;;;;;;80.05;43.03;;;3.30;93.00;;;;;;2060537;28;20103;-73
2021/01/02 02:27:05;;;;;;;81.30;43.92;;;3.30;93.00;;;;;;2061086;28;20027;-73
2021/01/02 02:28:13;;;;;;;81.05;43.28;;;3.30;93.00;;;;;;2065462;28;20037;-72
2021/01/02 02:29:14;;;;;;;79.30;42.67;;;3.30;93.00;;;;;;2064182;28;20538;-73
2021/01/02 02:30:17;;;;;;;81.10;43.90;;;3.30;93.10;;;;;;2057197;28;20035;-73
2021/01/02 02:31:19;;;;;;;80.75;42.85;;;3.30;93.10;;;;;;2057145;28;20049;-73
2021/01/02 02:32:24;;;;;;;77.70;42.20;;;3.30;93.10;;;;;;2056992;28;20037;-72
2021/01/02 02:33:30;;;;;;;75.57;42.15;;;3.30;93.00;;;;;;2056668;28;20119;-73
2021/01/02 02:34:31;;;;;;;79.72;42.42;;;3.30;93.00;;;;;;2056902;28;20026;-72
2021/01/02 02:35:33;;;;;;;75.13;42.63;;;3.30;93.00;;;;;;2057540;28;20035;-73
2021/01/02 02:36:34;;;;;;;85.00;44.35;;;3.30;93.00;;;;;;2057139;28;20039;-71
2021/01/02 02:37:40;;;;;;;80.72;43.17;;;3.30;93.00;;;;;;2057356;28;20030;-72
2021/01/02 02:38:41;;;;;;;76.93;42.97;;;3.30;93.00;;;;;;2057573;28;20062;-72
2021/01/02 02:39:45;;;;;;;78.85;43.72;;;3.30;93.10;;;;;;2057284;28;20046;-72
2021/01/02 02:40:45;;;;;;;78.10;42.63;;;3.30;93.10;;;;;;2056950;28;20031;-72
2021/01/02 02:41:51;;;;;;;79.47;43.35;;;3.20;93.10;;;;;;2057267;28;20037;-73
2021/01/02 02:42:58;;;;;;;77.88;43.30;;;3.30;93.10;;;;;;2057620;28;20101;-73
2021/01/02 02:44:02;;;;;;;75.53;41.58;;;3.30;93.10;;;;;;2057299;28;20430;-72
2021/01/02 02:45:08;;;;;;;76.50;42.47;;;3.20;93.00;;;;;;2056983;28;20026;-72
2021/01/02 02:46:13;;;;;;;77.50;43.17;;;3.20;92.90;;;;;;2056643;28;20069;-73
2021/01/02 02:47:18;;;;;;;76.25;41.13;;;3.20;93.00;;;;;;2057595;28;20033;-72
2021/01/02 02:48:20;;;;;;;75.28;40.63;;;3.20;92.90;;;;;;2057486;28;20034;-72
2021/01/02 02:49:25;;;;;;;77.68;41.85;;;3.20;93.00;;;;;;2057302;28;20376;-72
2021/01/02 02:50:27;;;;;;;77.07;41.63;;;3.20;93.10;;;;;;2057162;28;20030;-72
2021/01/02 02:51:34;;;;;;;74.93;41.33;;;3.20;93.10;;;;;;2057417;28;20525;-72
2021/01/02 02:52:38;;;;;;;75.00;41.45;;;3.20;93.10;;;;;;2057704;28;20498;-72
2021/01/02 02:53:39;;;;;;;75.10;41.90;;;3.20;93.10;;;;;;2057513;28;20034;-73
2021/01/02 02:54:41;;;;;;;78.20;43.05;;;3.20;93.10;;;;;;2057497;28;20078;-72
2021/01/02 02:55:43;;;;;;;77.22;42.63;;;3.20;93.20;;;;;;2057384;28;20073;-72
2021/01/02 02:56:43;;;;;;;79.28;43.70;;;3.20;93.20;;;;;;2057367;28;20042;-72
2021/01/02 02:57:48;;;;;;;76.22;42.58;;;3.30;93.20;;;;;;2057081;28;20027;-72
2021/01/02 02:58:52;;;;;;;76.43;41.95;;;3.30;93.10;;;;;;2057312;28;20479;-72
2021/01/02 02:59:52;;;;;;;76.97;43.03;;;3.30;93.00;;;;;;2057497;28;20027;-73
2021/01/02 03:00:53;;;;;;;78.63;43.05;;;3.30;93.00;;;;;;2064376;28;20030;-72
2021/01/02 03:01:54;;;;;;;78.82;43.25;;;3.30;93.00;;;;;;2064805;28;20077;-72
2021/01/02 03:02:55;;;;;;;77.78;44.28;;;3.30;92.90;;;;;;2057516;28;20034;-72
2021/01/02 03:03:55;;;;;;;72.43;41.90;;;3.30;92.90;;;;;;2057514;28;20031;-72
2021/01/02 03:04:56;;;;;;;75.78;42.53;;;3.30;93.00;;;;;;2057546;28;20509;-72
2021/01/02 03:05:57;;;;;;;83.40;44.65;;;3.30;93.00;;;;;;2056685;28;20022;-71
2021/01/02 03:07:01;;;;;;;80.32;43.88;;;3.30;92.90;;;;;;2056528;28;20043;-71
2021/01/02 03:08:02;;;;;;;79.28;43.88;;;3.40;93.30;;;;;;2057322;28;20027;-72
2021/01/02 03:09:03;;;;;;;78.38;43.40;;;3.40;93.00;;;;;;2057248;28;20034;-72
2021/01/02 03:10:04;;;;;;;78.40;44.28;;;3.40;92.90;;;;;;2057250;28;20391;-71
2021/01/02 03:11:05;;;;;;;77.88;43.67;;;3.40;92.80;;;;;;2056910;28;20074;-72
2021/01/02 03:12:06;;;;;;;76.63;42.10;;;3.40;92.80;;;;;;2057476;28;20034;-73
2021/01/02 03:13:07;;;;;;;77.65;42.97;;;3.40;92.80;;;;;;2057162;28;20119;-72
2021/01/02 03:14:08;;;;;;;77.00;42.80;;;3.40;92.70;;;;;;2056966;28;20054;-72
2021/01/02 03:15:10;;;;;;;73.65;41.50;;;3.40;92.70;;;;;;2057174;28;20039;-72
2021/01/02 03:16:11;;;;;;;74.90;41.28;;;3.40;92.60;;;;;;2056906;28;20178;-72
2021/01/02 03:17:11;;;;;;;74.30;42.05;;;3.40;92.60;;;;;;2057103;28;20046;-72
2021/01/02 03:18:12;;;;;;;78.90;42.72;;;3.40;92.70;;;;;;2057222;28;20093;-73
2021/01/02 03:19:13;;;;;;;72.35;40.90;;;3.40;92.60;;;;;;2056240;28;20026;-74
2021/01/02 03:20:15;;;;;;;76.85;42.60;;;3.40;92.60;;;;;;2055900;28;20035;-73
2021/01/02 03:21:16;;;;;;;76.30;41.58;;;3.40;92.50;;;;;;2064343;28;20030;-73
2021/01/02 03:22:16;;;;;;;73.10;41.17;;;3.40;92.50;;;;;;2064261;28;20064;-73
2021/01/02 03:23:17;;;;;;;76.75;42.35;;;3.40;92.50;;;;;;2056905;28;20037;-72
2021/01/02 03:24:18;;;;;;;70.80;42.00;;;3.40;92.40;;;;;;2056910;28;20494;-73
2021/01/02 03:25:19;;;;;;;78.95;44.08;;;3.40;92.20;;;;;;2057014;28;20486;-73
2021/01/02 03:26:19;;;;;;;76.07;43.80;;;3.40;92.00;;;;;;2056729;28;20027;-73
2021/01/02 03:27:21;;;;;;;78.35;43.22;;;3.40;92.10;;;;;;2056891;28;20031;-72
2021/01/02 03:28:22;;;;;;;77.30;43.28;;;3.40;92.00;;;;;;2056952;28;20146;-73
2021/01/02 03:29:22;;;;;;;75.93;44.15;;;3.40;92.00;;;;;;2056950;28;20491;-73
2021/01/02 03:30:29;;;;;;;73.80;43.17;;;3.40;91.90;;;;;;2056549;28;20553;-73
2021/01/02 03:31:29;;;;;;;74.63;41.95;;;3.30;92.20;;;;;;2056838;28;20035;-73
2021/01/02 03:32:30;;;;;;;73.53;41.92;;;3.40;91.90;;;;;;2056882;28;20049;-73
2021/01/02 03:33:31;;;;;;;72.43;42.10;;;3.40;91.90;;;;;;2056806;28;20039;-72
2021/01/02 03:34:36;;;;;;;77.72;42.85;;;3.40;91.80;;;;;;2056944;28;20066;-73
2021/01/02 03:35:37;;;;;;;74.90;42.28;;;3.30;91.70;;;;;;2057177;28;20035;-73
2021/01/02 03:36:38;;;;;;;75.28;41.50;;;3.30;91.60;;;;;;2056695;28;20678;-73
2021/01/02 03:37:40;;;;;;;77.38;43.10;;;3.30;91.60;;;;;;2064438;28;20030;-73
2021/01/02 03:38:56;;;;;;;80.88;44.63;;;3.30;91.60;;;;;;2064442;28;20035;-73
2021/01/02 03:39:57;;;;;;;76.45;43.03;;;3.30;91.60;;;;;;2056211;28;20099;-72
2021/01/02 03:40:58;;;;;;;76.07;43.35;;;3.30;91.70;;;;;;2056059;28;20545;-72
2021/01/02 03:41:58;;;;;;;78.15;44.17;;;3.30;91.70;;;;;;2064159;28;20473;-72
2021/01/02 03:42:59;;;;;;;77.60;43.00;;;3.30;91.70;;;;;;2057055;28;20022;-72
2021/01/02 03:44:00;;;;;;;76.75;43.78;;;3.30;91.60;;;;;;2064208;28;20611;-72
2021/01/02 03:45:00;;;;;;;77.50;43.08;;;3.30;91.70;;;;;;2064125;28;20409;-72
2021/01/02 03:46:01;;;;;;;76.80;44.15;;;3.30;91.70;;;;;;2056657;28;20019;-72
2021/01/02 03:47:07;;;;;;;78.85;43.50;;;3.30;91.60;;;;;;2056713;28;20027;-71
2021/01/02 03:48:07;;;;;;;79.63;43.30;;;3.30;91.60;;;;;;2056863;28;20027;-72
2021/01/02 03:49:08;;;;;;;78.40;43.75;;;3.40;91.60;;;;;;2056907;28;20038;-72
2021/01/02 03:50:09;;;;;;;86.55;46.38;;;3.30;91.50;;;;;;2056864;28;20119;-71
2021/01/02 03:51:10;;;;;;;79.53;44.75;;;3.30;91.50;;;;;;2055595;28;20025;-72
2021/01/02 03:52:10;;;;;;;83.90;45.88;;;3.30;91.40;;;;;;2056187;28;20069;-72
2021/01/02 03:53:11;;;;;;;81.00;43.70;;;3.30;91.50;;;;;;2056812;28;20061;-72
2021/01/02 03:54:12;;;;;;;78.85;43.50;;;3.30;91.80;;;;;;2056629;28;20161;-72
2021/01/02 03:55:13;;;;;;;75.50;43.20;;;3.30;91.40;;;;;;2056903;28;20125;-72
2021/01/02 03:56:13;;;;;;;86.75;46.85;;;3.30;91.50;;;;;;2063996;28;20144;-71
2021/01/02 03:57:14;;;;;;;85.15;45.90;;;3.20;91.40;;;;;;2064304;28;20030;-72
2021/01/02 03:58:15;;;;;;;82.03;44.78;;;3.20;91.40;;;;;;2056865;28;20030;-72
2021/01/02 03:59:15;;;;;;;81.43;44.92;;;3.20;91.50;;;;;;2056791;28;20482;-72
2021/01/02 04:00:17;;;;;;;83.20;44.67;;;3.20;91.90;;;;;;2056348;28;20065;-72
2021/01/02 04:01:18;;;;;;;87.78;46.10;;;3.20;91.60;;;;;;2056766;28;20020;-72
2021/01/02 04:02:18;;;;;;;80.43;43.65;;;3.20;91.70;;;;;;2056937;28;20479;-72
2021/01/02 04:03:19;;;;;;;81.18;44.53;;;3.10;91.60;;;;;;2056621;28;20035;-72
2021/01/02 04:04:20;;;;;;;78.90;43.15;;;3.10;91.60;;;;;;2056669;28;20054;-71
2021/01/02 04:05:21;;;;;;;77.03;43.33;;;3.10;91.60;;;;;;2056751;28;20035;-72
2021/01/02 04:06:25;;;;;;;80.60;44.00;;;3.10;91.60;;;;;;2055886;28;20474;-71
2021/01/02 04:07:26;;;;;;;74.05;41.72;;;3.10;91.60;;;;;;2056187;28;20158;-71
2021/01/02 04:08:27;;;;;;;78.00;42.58;;;3.10;91.70;;;;;;2056773;28;20483;-71
2021/01/02 04:09:27;;;;;;;75.53;42.13;;;3.10;91.60;;;;;;2056808;28;20375;-73
2021/01/02 04:10:28;;;;;;;80.10;43.35;;;3.10;91.60;;;;;;2063777;28;20034;-72
2021/01/02 04:11:29;;;;;;;81.47;43.08;;;3.10;91.60;;;;;;2056171;28;20558;-73
2021/01/02 04:12:29;;;;;;;80.00;43.35;;;3.10;91.60;;;;;;2056144;28;20034;-73
2021/01/02 04:13:30;;;;;;;77.75;42.40;;;3.10;91.60;;;;;;2056135;28;20038;-72
2021/01/02 04:14:30;;;;;;;86.22;45.85;;;3.10;91.70;;;;;;2055978;28;20118;-71
2021/01/02 04:15:31;;;;;;;81.53;44.53;;;3.10;91.70;;;;;;2047847;29;20066;-73
2021/01/02 04:16:32;;;;;;;79.88;43.10;;;3.10;91.70;;;;;;2047822;28;20039;-73
2021/01/02 04:17:33;;;;;;;77.57;42.85;;;3.10;91.70;;;;;;2056489;28;20027;-72
2021/01/02 04:18:34;;;;;;;77.30;42.42;;;3.10;91.70;;;;;;2055920;28;20026;-73
2021/01/02 04:19:35;;;;;;;80.18;44.00;;;3.10;91.70;;;;;;2055985;28;20058;-72
2021/01/02 04:20:35;;;;;;;78.53;43.17;;;3.10;91.70;;;;;;2056068;28;20027;-72
2021/01/02 04:21:37;;;;;;;74.38;41.90;;;3.00;91.70;;;;;;2056451;28;20035;-72
2021/01/02 04:22:37;;;;;;;78.13;42.47;;;3.00;91.70;;;;;;2056787;28;20051;-73
2021/01/02 04:23:38;;;;;;;80.47;43.05;;;3.00;91.70;;;;;;2056704;28;20031;-73
2021/01/02 04:24:39;;;;;;;79.63;43.40;;;3.00;91.70;;;;;;2056532;28;20033;-72
2021/01/02 04:25:40;;;;;;;80.40;44.25;;;3.00;91.70;;;;;;2056514;28;20065;-72
2021/01/02 04:26:41;;;;;;;80.53;43.58;;;3.00;91.80;;;;;;2056221;28;20023;-72
2021/01/02 04:27:41;;;;;;;83.07;44.60;;;3.00;91.90;;;;;;2054921;28;20053;-72
2021/01/02 04:28:42;;;;;;;85.90;44.30;;;3.00;91.90;;;;;;2048506;28;20027;-72
2021/01/02 04:29:42;;;;;;;82.43;44.17;;;3.00;91.90;;;;;;2048538;29;20066;-72
2021/01/02 04:30:43;;;;;;;81.15;44.35;;;3.00;91.90;;;;;;2048085;29;20038;-72
2021/01/02 04:31:44;;;;;;;77.65;41.95;;;3.00;91.80;;;;;;2048454;28;20085;-72
2021/01/02 04:32:46;;;;;;;76.20;42.28;;;3.00;91.90;;;;;;2048532;29;20031;-72
2021/01/02 04:33:48;;;;;;;75.78;41.88;;;3.00;91.90;;;;;;2047974;28;20031;-71
2021/01/02 04:34:49;;;;;;;76.85;42.65;;;3.00;91.90;;;;;;2048380;28;20498;-72
2021/01/02 04:35:50;;;;;;;81.30;42.53;;;3.00;91.90;;;;;;2048392;28;20031;-72
2021/01/02 04:36:51;;;;;;;79.32;43.35;;;3.00;91.80;;;;;;2048040;29;20054;-72
2021/01/02 04:37:51;;;;;;;80.72;43.25;;;3.00;91.80;;;;;;2048436;28;20063;-72
2021/01/02 04:38:52;;;;;;;78.78;42.50;;;3.00;91.90;;;;;;2055727;28;20050;-72
2021/01/02 04:39:54;;;;;;;80.35;43.85;;;3.00;91.90;;;;;;2055828;28;20418;-72
2021/01/02 04:40:56;;;;;;;79.60;44.33;;;3.00;91.90;;;;;;2047998;28;20456;-72
2021/01/02 04:41:56;;;;;;;86.00;44.78;;;3.00;91.90;;;;;;2048412;28;20031;-72
2021/01/02 04:42:58;;;;;;;81.68;44.03;;;3.00;91.90;;;;;;2048453;29;20030;-72
2021/01/02 04:43:59;;;;;;;81.65;43.63;;;2.90;91.80;;;;;;2048451;29;20031;-72
2021/01/02 04:45:00;;;;;;;83.88;43.00;;;3.00;91.80;;;;;;2047670;29;20105;-72
2021/01/02 04:46:03;;;;;;;82.65;44.05;;;2.90;91.90;;;;;;2047616;29;20502;-73
2021/01/02 04:47:04;;;;;;;78.82;42.90;;;2.90;92.00;;;;;;2048506;28;20479;-72
2021/01/02 04:48:06;;;;;;;78.57;42.97;;;2.90;92.00;;;;;;2048377;28;20024;-72
2021/01/02 04:49:07;;;;;;;78.90;43.47;;;3.00;92.00;;;;;;2048539;28;20023;-72
2021/01/02 04:50:08;;;;;;;82.13;43.45;;;2.90;91.90;;;;;;2055568;28;20267;-72
2021/01/02 04:51:09;;;;;;;80.63;42.58;;;2.90;92.00;;;;;;2047283;29;20027;-72
2021/01/02 04:52:13;;;;;;;77.28;42.65;;;2.90;91.90;;;;;;2047786;28;20031;-71
2021/01/02 04:53:14;;;;;;;79.32;42.17;;;2.90;92.00;;;;;;2048319;28;20031;-72
2021/01/02 04:54:19;;;;;;;81.45;43.63;;;2.80;92.00;;;;;;2048243;29;20035;-72
2021/01/02 04:55:24;;;;;;;79.45;43.00;;;2.80;92.00;;;;;;2048541;28;20027;-72
2021/01/02 04:56:26;;;;;;;81.18;43.05;;;2.80;92.10;;;;;;2048074;28;20534;-72
2021/01/02 04:57:34;;;;;;;76.60;41.58;;;2.80;92.10;;;;;;2048391;28;20051;-72
2021/01/02 04:58:43;;;;;;;76.93;40.20;;;2.80;92.10;;;;;;2055554;28;20030;-72
2021/01/02 04:59:52;;;;;;;75.88;41.50;;;2.80;92.20;;;;;;2054884;28;20043;-72
2021/01/02 05:00:54;;;;;;;77.72;42.85;;;2.80;92.20;;;;;;2047845;28;20034;-72
2021/01/02 05:01:59;;;;;;;76.25;41.00;;;2.80;92.20;;;;;;2048249;28;20042;-72
2021/01/02 05:03:01;;;;;;;79.53;42.70;;;2.80;92.30;;;;;;2048119;28;20487;-72
2021/01/02 05:04:01;;;;;;;76.35;41.28;;;2.70;92.30;;;;;;2050951;29;20414;-73
2021/01/02 05:05:04;;;;;;;83.57;43.72;;;2.70;92.30;;;;;;2053273;29;20068;-73
2021/01/02 05:06:05;;;;;;;82.03;44.17;;;2.70;92.40;;;;;;2053433;28;20027;-73
2021/01/02 05:07:05;;;;;;;82.45;44.25;;;2.70;92.40;;;;;;2053876;28;20035;-73
2021/01/02 05:08:06;;;;;;;79.68;43.50;;;2.70;92.50;;;;;;2049970;29;20127;-72
2021/01/02 05:09:07;;;;;;;79.68;43.35;;;2.80;92.60;;;;;;2048409;28;20035;-72
2021/01/02 05:10:09;;;;;;;80.15;42.78;;;2.70;92.50;;;;;;2055465;28;20718;-72
2021/01/02 05:11:09;;;;;;;83.65;43.92;;;2.80;92.50;;;;;;2055052;28;20764;-72
2021/01/02 05:12:30;;;;;;;81.53;44.67;;;2.70;92.40;;;;;;2048320;28;20038;-72
2021/01/02 05:13:32;;;;;;;83.95;44.42;;;2.80;92.40;;;;;;2048317;28;20077;-72
2021/01/02 05:14:33;;;;;;;87.20;44.85;;;2.80;92.30;;;;;;2048013;28;20039;-72
2021/01/02 05:15:34;;;;;;;82.57;43.50;;;2.80;92.40;;;;;;2048144;29;20070;-71
2021/01/02 05:16:39;;;;;;;84.35;44.58;;;2.80;92.30;;;;;;2047948;28;20031;-73
2021/01/02 05:17:41;;;;;;;82.28;43.28;;;2.80;92.40;;;;;;2055541;28;20043;-70
2021/01/02 05:18:59;;;;;;;79.72;42.40;;;2.80;92.40;;;;;;2055517;28;20031;-70
2021/01/02 05:20:26;;;;;;;81.05;42.60;;;2.80;92.40;;;;;;2048368;28;20479;-71
2021/01/02 05:21:27;;;;;;;77.88;41.13;;;2.80;92.40;;;;;;2045906;28;20039;-70
2021/01/02 05:22:28;;;;;;;77.22;40.67;;;2.80;92.30;;;;;;2048850;28;20029;-70
2021/01/02 05:23:29;;;;;;;80.50;42.22;;;2.80;92.30;;;;;;2049001;28;20359;-71
2021/01/02 05:24:30;;;;;;;78.00;41.42;;;2.80;92.40;;;;;;2048809;28;20038;-71
2021/01/02 05:25:30;;;;;;;78.90;41.33;;;2.80;92.40;;;;;;2048112;29;20031;-70
2021/01/02 05:26:32;;;;;;;79.30;42.55;;;2.80;92.40;;;;;;2047740;29;20027;-72
2021/01/02 05:27:35;;;;;;;81.10;42.25;;;2.80;92.30;;;;;;2052663;28;20062;-71
2021/01/02 05:28:35;;;;;;;86.68;44.60;;;2.80;92.40;;;;;;2055980;28;20070;-71
2021/01/02 05:29:36;;;;;;;80.88;44.10;;;2.90;92.40;;;;;;2048554;28;20039;-71
2021/01/02 05:30:37;;;;;;;84.03;43.40;;;2.90;92.30;;;;;;2055542;28;20034;-70
2021/01/02 05:31:39;;;;;;;90.82;45.40;;;2.90;92.30;;;;;;2055872;28;20510;-71
2021/01/02 05:33:13;;;;;;;85.68;44.08;;;2.90;92.30;;;;;;2055717;28;20577;-71
2021/01/02 05:34:16;;;;;;;79.95;42.70;;;2.90;92.30;;;;;;2031413;29;20042;-71
2021/01/02 05:35:24;;;;;;;84.22;42.72;;;2.90;92.20;;;;;;2041583;29;20063;-70
2021/01/02 05:36:25;;;;;;;87.07;44.53;;;2.90;92.20;;;;;;2047242;29;20023;-70
2021/01/02 05:37:26;;;;;;;80.82;42.55;;;2.90;92.20;;;;;;2048088;28;20089;-71
2021/01/02 05:38:26;;;;;;;80.35;43.05;;;2.90;92.10;;;;;;2048126;28;20047;-71
2021/01/02 05:39:38;;;;;;;82.15;42.63;;;2.90;92.10;;;;;;2048192;28;20031;-71
2021/01/02 05:40:49;;;;;;;78.60;41.45;;;2.90;92.00;;;;;;2047637;28;20055;-70
2021/01/02 05:41:54;;;;;;;80.85;42.25;;;2.90;92.00;;;;;;2055549;28;20035;-70